Terminal Aerodrome Forecast
Issued by NWS

Home | Current Version | Previous Version | Text Only | Print | Product List | Glossary On
Versions: 1 2 3 4 5 6 7 8 9 10 11 12
361
FTUS43 KIWX 201143
TAFSBN
TAF
KSBN 201143Z 2012/2112 22013KT P6SM SCT250 WS020/24050KT
     FM201400 22010KT P6SM SCT035
     FM202200 22008KT 5SM BR BKN015
     FM210400 20005KT 2SM -DZ BR OVC008
     FM210900 19005KT 1SM -DZ BR OVC005=

USA.gov is the U.S. government's official web portal to all federal, state and local government web resources and services.